sensor_id;sensor_type;location;lat;lon;timestamp;pressure;altitude;pressure_sealevel;temperature;humidity
50430;BME280;36359;41.556;-8.418;2022-07-12T00:02:12;99803.63;;;25.78;64.94
50430;BME280;36359;41.556;-8.418;2022-07-12T00:04:38;99807.69;;;25.65;66.30
50430;BME280;36359;41.556;-8.418;2022-07-12T00:07:04;99812.06;;;25.88;65.15
50430;BME280;36359;41.556;-8.418;2022-07-12T00:09:30;99817.22;;;26.01;64.52
50430;BME280;36359;41.556;-8.418;2022-07-12T00:11:56;99805.50;;;25.94;64.72
50430;BME280;36359;41.556;-8.418;2022-07-12T00:14:24;99800.00;;;26.04;64.33
50430;BME280;36359;41.556;-8.418;2022-07-12T00:16:50;99801.66;;;26.05;63.99
50430;BME280;36359;41.556;-8.418;2022-07-12T00:19:17;99792.16;;;25.96;64.28
50430;BME280;36359;41.556;-8.418;2022-07-12T00:21:43;99782.19;;;26.00;64.62
50430;BME280;36359;41.556;-8.418;2022-07-12T00:24:09;99786.41;;;25.81;67.23
50430;BME280;36359;41.556;-8.418;2022-07-12T00:26:35;99790.72;;;25.89;65.61
50430;BME280;36359;41.556;-8.418;2022-07-12T00:29:00;99790.25;;;25.75;65.64
50430;BME280;36359;41.556;-8.418;2022-07-12T00:31:26;99806.50;;;25.88;64.57
50430;BME280;36359;41.556;-8.418;2022-07-12T00:33:52;99796.56;;;25.65;68.14
50430;BME280;36359;41.556;-8.418;2022-07-12T00:36:18;99799.25;;;25.33;70.30
50430;BME280;36359;41.556;-8.418;2022-07-12T00:38:45;99790.19;;;24.77;72.87
50430;BME280;36359;41.556;-8.418;2022-07-12T00:41:11;99797.16;;;25.01;70.43
50430;BME280;36359;41.556;-8.418;2022-07-12T00:43:37;99797.28;;;25.11;70.74
50430;BME280;36359;41.556;-8.418;2022-07-12T00:46:03;99785.84;;;25.25;69.54
50430;BME280;36359;41.556;-8.418;2022-07-12T00:48:31;99790.78;;;25.45;69.38
50430;BME280;36359;41.556;-8.418;2022-07-12T00:50:57;99784.91;;;25.68;66.14
50430;BME280;36359;41.556;-8.418;2022-07-12T00:53:23;99781.88;;;25.70;67.97
50430;BME280;36359;41.556;-8.418;2022-07-12T00:55:54;99789.41;;;25.74;66.10
50430;BME280;36359;41.556;-8.418;2022-07-12T00:58:21;99787.41;;;25.70;67.56
50430;BME280;36359;41.556;-8.418;2022-07-12T01:00:48;99792.25;;;25.52;68.26
50430;BME280;36359;41.556;-8.418;2022-07-12T01:03:14;99795.03;;;25.52;67.25
50430;BME280;36359;41.556;-8.418;2022-07-12T01:05:40;99798.97;;;25.56;69.12
50430;BME280;36359;41.556;-8.418;2022-07-12T01:08:07;99792.97;;;25.70;67.41
50430;BME280;36359;41.556;-8.418;2022-07-12T01:10:34;99803.09;;;25.81;65.44
50430;BME280;36359;41.556;-8.418;2022-07-12T01:13:01;99802.28;;;25.53;69.42
50430;BME280;36359;41.556;-8.418;2022-07-12T01:15:28;99788.78;;;25.40;69.43
50430;BME280;36359;41.556;-8.418;2022-07-12T01:17:55;99787.28;;;25.54;66.70
50430;BME280;36359;41.556;-8.418;2022-07-12T01:20:22;99791.16;;;25.80;65.38
50430;BME280;36359;41.556;-8.418;2022-07-12T01:22:55;99796.13;;;25.78;66.94
50430;BME280;36359;41.556;-8.418;2022-07-12T01:25:24;99800.56;;;25.25;69.54
50430;BME280;36359;41.556;-8.418;2022-07-12T01:27:50;99790.06;;;25.32;70.64
50430;BME280;36359;41.556;-8.418;2022-07-12T01:30:16;99785.28;;;25.06;71.70
50430;BME280;36359;41.556;-8.418;2022-07-12T01:32:42;99784.84;;;25.36;67.73
50430;BME280;36359;41.556;-8.418;2022-07-12T01:35:10;99787.94;;;25.40;70.35
50430;BME280;36359;41.556;-8.418;2022-07-12T01:37:37;99784.28;;;25.34;68.08
50430;BME280;36359;41.556;-8.418;2022-07-12T01:40:06;99781.09;;;25.47;68.79
50430;BME280;36359;41.556;-8.418;2022-07-12T01:42:32;99779.56;;;25.61;66.93
50430;BME280;36359;41.556;-8.418;2022-07-12T01:44:59;99785.00;;;25.24;71.02
50430;BME280;36359;41.556;-8.418;2022-07-12T01:47:27;99784.84;;;24.92;72.08
50430;BME280;36359;41.556;-8.418;2022-07-12T01:49:53;99782.47;;;25.23;67.84
50430;BME280;36359;41.556;-8.418;2022-07-12T01:52:20;99776.53;;;25.36;67.99
50430;BME280;36359;41.556;-8.418;2022-07-12T01:54:46;99774.44;;;25.26;69.03
50430;BME280;36359;41.556;-8.418;2022-07-12T01:57:13;99772.13;;;25.40;69.20
50430;BME280;36359;41.556;-8.418;2022-07-12T01:59:40;99761.13;;;25.50;66.91
50430;BME280;36359;41.556;-8.418;2022-07-12T02:02:06;99764.06;;;25.38;68.82
50430;BME280;36359;41.556;-8.418;2022-07-12T02:04:33;99778.25;;;25.42;69.38
50430;BME280;36359;41.556;-8.418;2022-07-12T02:06:59;99774.69;;;25.74;66.22
50430;BME280;36359;41.556;-8.418;2022-07-12T02:09:27;99765.19;;;25.15;70.01
50430;BME280;36359;41.556;-8.418;2022-07-12T02:11:54;99776.53;;;25.36;67.62
50430;BME280;36359;41.556;-8.418;2022-07-12T02:14:20;99778.50;;;25.41;67.78
50430;BME280;36359;41.556;-8.418;2022-07-12T02:16:47;99778.47;;;25.13;71.19
50430;BME280;36359;41.556;-8.418;2022-07-12T02:19:13;99778.97;;;25.10;70.60
50430;BME280;36359;41.556;-8.418;2022-07-12T02:21:39;99777.19;;;25.21;70.11
50430;BME280;36359;41.556;-8.418;2022-07-12T02:24:06;99773.69;;;25.31;67.70
50430;BME280;36359;41.556;-8.418;2022-07-12T02:26:33;99778.34;;;25.52;66.72
50430;BME280;36359;41.556;-8.418;2022-07-12T02:29:00;99779.84;;;25.38;69.10
50430;BME280;36359;41.556;-8.418;2022-07-12T02:31:26;99774.81;;;25.57;66.59
50430;BME280;36359;41.556;-8.418;2022-07-12T02:33:52;99773.91;;;25.51;67.31
50430;BME280;36359;41.556;-8.418;2022-07-12T02:36:17;99770.06;;;25.30;68.52
50430;BME280;36359;41.556;-8.418;2022-07-12T02:38:43;99770.16;;;25.13;70.29
50430;BME280;36359;41.556;-8.418;2022-07-12T02:41:09;99765.75;;;24.96;71.32
50430;BME280;36359;41.556;-8.418;2022-07-12T02:43:35;99766.31;;;24.76;71.51
50430;BME280;36359;41.556;-8.418;2022-07-12T02:46:10;99771.38;;;25.23;68.59
50430;BME280;36359;41.556;-8.418;2022-07-12T02:48:37;99772.25;;;25.28;69.47
50430;BME280;36359;41.556;-8.418;2022-07-12T02:51:04;99777.59;;;25.57;67.05
50430;BME280;36359;41.556;-8.418;2022-07-12T02:53:30;99780.81;;;25.76;66.13
50430;BME280;36359;41.556;-8.418;2022-07-12T02:55:56;99775.72;;;25.68;66.48
50430;BME280;36359;41.556;-8.418;2022-07-12T02:58:22;99777.66;;;25.89;65.49
50430;BME280;36359;41.556;-8.418;2022-07-12T03:00:48;99781.47;;;25.83;65.33
50430;BME280;36359;41.556;-8.418;2022-07-12T03:03:15;99778.66;;;25.56;66.83
50430;BME280;36359;41.556;-8.418;2022-07-12T03:05:42;99778.13;;;25.32;69.02
50430;BME280;36359;41.556;-8.418;2022-07-12T03:08:09;99772.25;;;25.06;70.98
50430;BME280;36359;41.556;-8.418;2022-07-12T03:10:38;99775.47;;;25.15;68.72
50430;BME280;36359;41.556;-8.418;2022-07-12T03:13:05;99779.63;;;25.18;68.82
50430;BME280;36359;41.556;-8.418;2022-07-12T03:15:31;99781.28;;;25.41;67.36
50430;BME280;36359;41.556;-8.418;2022-07-12T03:17:58;99782.47;;;25.23;69.55
50430;BME280;36359;41.556;-8.418;2022-07-12T03:20:24;99772.78;;;25.47;67.25
50430;BME280;36359;41.556;-8.418;2022-07-12T03:22:50;99775.53;;;25.47;67.59
50430;BME280;36359;41.556;-8.418;2022-07-12T03:25:18;99774.50;;;25.53;67.46
50430;BME280;36359;41.556;-8.418;2022-07-12T03:27:44;99774.53;;;25.58;66.68
50430;BME280;36359;41.556;-8.418;2022-07-12T03:30:11;99769.94;;;25.42;66.88
50430;BME280;36359;41.556;-8.418;2022-07-12T03:32:37;99772.34;;;25.60;66.64
50430;BME280;36359;41.556;-8.418;2022-07-12T03:35:04;99772.38;;;25.66;65.40
50430;BME280;36359;41.556;-8.418;2022-07-12T03:37:49;99773.50;;;25.92;64.67
50430;BME280;36359;41.556;-8.418;2022-07-12T03:40:16;99777.59;;;25.84;65.07
50430;BME280;36359;41.556;-8.418;2022-07-12T03:42:43;99779.25;;;25.85;64.72
50430;BME280;36359;41.556;-8.418;2022-07-12T03:45:10;99775.41;;;25.91;64.41
50430;BME280;36359;41.556;-8.418;2022-07-12T03:47:36;99773.44;;;25.87;64.45
50430;BME280;36359;41.556;-8.418;2022-07-12T03:50:04;99768.78;;;25.92;64.52
50430;BME280;36359;41.556;-8.418;2022-07-12T03:52:32;99773.56;;;26.02;63.98
50430;BME280;36359;41.556;-8.418;2022-07-12T03:54:58;99782.09;;;25.90;62.95
50430;BME280;36359;41.556;-8.418;2022-07-12T03:57:24;99777.50;;;25.79;62.56
50430;BME280;36359;41.556;-8.418;2022-07-12T03:59:51;99776.59;;;25.95;63.81
50430;BME280;36359;41.556;-8.418;2022-07-12T04:02:17;99777.63;;;25.13;63.49
50430;BME280;36359;41.556;-8.418;2022-07-12T04:04:44;99769.97;;;24.59;70.02
50430;BME280;36359;41.556;-8.418;2022-07-12T04:07:10;99765.69;;;24.35;72.18
50430;BME280;36359;41.556;-8.418;2022-07-12T04:09:36;99765.72;;;24.18;72.87
50430;BME280;36359;41.556;-8.418;2022-07-12T04:12:02;99759.41;;;24.56;69.10
50430;BME280;36359;41.556;-8.418;2022-07-12T04:14:27;99769.88;;;24.93;68.15
50430;BME280;36359;41.556;-8.418;2022-07-12T04:16:54;99761.81;;;25.13;66.79
50430;BME280;36359;41.556;-8.418;2022-07-12T04:19:20;99779.84;;;25.38;66.00
50430;BME280;36359;41.556;-8.418;2022-07-12T04:21:50;99778.25;;;25.42;65.16
50430;BME280;36359;41.556;-8.418;2022-07-12T04:24:15;99780.13;;;25.36;66.40
50430;BME280;36359;41.556;-8.418;2022-07-12T04:26:41;99784.38;;;25.44;66.44
50430;BME280;36359;41.556;-8.418;2022-07-12T04:29:07;99785.53;;;25.21;67.29
50430;BME280;36359;41.556;-8.418;2022-07-12T04:31:33;99789.69;;;25.46;66.35
50430;BME280;36359;41.556;-8.418;2022-07-12T04:33:59;99794.78;;;25.54;65.72
50430;BME280;36359;41.556;-8.418;2022-07-12T04:36:24;99802.28;;;25.53;65.26
50430;BME280;36359;41.556;-8.418;2022-07-12T04:38:50;99798.84;;;25.46;65.02
50430;BME280;36359;41.556;-8.418;2022-07-12T04:41:18;99803.47;;;25.63;64.88
50430;BME280;36359;41.556;-8.418;2022-07-12T04:43:44;99805.41;;;25.62;64.21
50430;BME280;36359;41.556;-8.418;2022-07-12T04:46:11;99803.31;;;25.47;64.03
50430;BME280;36359;41.556;-8.418;2022-07-12T04:48:37;99801.00;;;25.66;64.34
50430;BME280;36359;41.556;-8.418;2022-07-12T04:51:03;99799.94;;;25.45;62.87
50430;BME280;36359;41.556;-8.418;2022-07-12T04:53:30;99804.78;;;25.55;61.81
50430;BME280;36359;41.556;-8.418;2022-07-12T04:55:56;99808.22;;;25.67;60.49
50430;BME280;36359;41.556;-8.418;2022-07-12T04:58:23;99817.41;;;25.68;55.21
50430;BME280;36359;41.556;-8.418;2022-07-12T05:01:06;99817.00;;;25.81;60.51
50430;BME280;36359;41.556;-8.418;2022-07-12T05:03:33;99818.28;;;25.95;49.66
50430;BME280;36359;41.556;-8.418;2022-07-12T05:05:59;99817.00;;;26.08;53.47
50430;BME280;36359;41.556;-8.418;2022-07-12T05:08:25;99823.19;;;26.15;48.81
50430;BME280;36359;41.556;-8.418;2022-07-12T05:10:51;99832.41;;;26.21;55.54
50430;BME280;36359;41.556;-8.418;2022-07-12T05:13:17;99822.94;;;26.22;61.26
50430;BME280;36359;41.556;-8.418;2022-07-12T05:15:43;99836.31;;;26.25;59.93
50430;BME280;36359;41.556;-8.418;2022-07-12T05:18:09;99832.94;;;26.18;57.64
50430;BME280;36359;41.556;-8.418;2022-07-12T05:20:34;99848.22;;;26.15;61.24
50430;BME280;36359;41.556;-8.418;2022-07-12T05:23:33;99843.00;;;25.97;60.04
50430;BME280;36359;41.556;-8.418;2022-07-12T05:25:58;99847.13;;;25.89;60.96
50430;BME280;36359;41.556;-8.418;2022-07-12T05:28:24;99849.84;;;25.84;59.79
50430;BME280;36359;41.556;-8.418;2022-07-12T05:30:50;99853.75;;;25.88;60.79
50430;BME280;36359;41.556;-8.418;2022-07-12T05:33:16;99847.66;;;25.86;60.97
50430;BME280;36359;41.556;-8.418;2022-07-12T05:35:41;99849.31;;;25.87;59.59
50430;BME280;36359;41.556;-8.418;2022-07-12T05:38:07;99849.63;;;25.91;59.63
50430;BME280;36359;41.556;-8.418;2022-07-12T05:40:33;99846.78;;;26.13;51.42
50430;BME280;36359;41.556;-8.418;2022-07-12T05:42:59;99849.44;;;25.97;56.97
50430;BME280;36359;41.556;-8.418;2022-07-12T05:45:25;99849.44;;;25.97;56.55
50430;BME280;36359;41.556;-8.418;2022-07-12T05:47:51;99851.09;;;25.98;57.32
50430;BME280;36359;41.556;-8.418;2022-07-12T05:50:17;99854.50;;;26.05;59.07
50430;BME280;36359;41.556;-8.418;2022-07-12T05:52:42;99855.66;;;26.10;56.29
50430;BME280;36359;41.556;-8.418;2022-07-12T05:55:26;99859.88;;;26.17;58.92
50430;BME280;36359;41.556;-8.418;2022-07-12T05:57:52;99854.13;;;26.24;58.57
50430;BME280;36359;41.556;-8.418;2022-07-12T06:00:18;99861.59;;;26.23;58.61
50430;BME280;36359;41.556;-8.418;2022-07-12T06:02:44;99864.44;;;26.28;58.11
50430;BME280;36359;41.556;-8.418;2022-07-12T06:05:09;99871.16;;;26.33;57.48
50430;BME280;36359;41.556;-8.418;2022-07-12T06:07:41;99875.31;;;26.30;57.89
50430;BME280;36359;41.556;-8.418;2022-07-12T06:10:07;99880.34;;;26.33;58.27
50430;BME280;36359;41.556;-8.418;2022-07-12T06:12:33;99879.34;;;26.17;49.62
50430;BME280;36359;41.556;-8.418;2022-07-12T06:14:59;99893.06;;;26.29;57.31
50430;BME280;36359;41.556;-8.418;2022-07-12T06:17:24;99886.91;;;26.22;52.89
50430;BME280;36359;41.556;-8.418;2022-07-12T06:19:50;99881.16;;;26.34;57.69
50430;BME280;36359;41.556;-8.418;2022-07-12T06:22:16;99884.19;;;26.32;54.33
50430;BME280;36359;41.556;-8.418;2022-07-12T06:24:41;99892.06;;;26.40;56.93
50430;BME280;36359;41.556;-8.418;2022-07-12T06:27:07;99898.25;;;26.47;55.90
50430;BME280;36359;41.556;-8.418;2022-07-12T06:29:33;99903.84;;;26.47;55.71
50430;BME280;36359;41.556;-8.418;2022-07-12T06:31:59;99891.34;;;26.50;52.68
50430;BME280;36359;41.556;-8.418;2022-07-12T06:34:24;99893.63;;;26.58;56.48
50430;BME280;36359;41.556;-8.418;2022-07-12T06:36:50;99903.69;;;26.64;51.10
50430;BME280;36359;41.556;-8.418;2022-07-12T06:39:17;99899.84;;;26.70;52.36
50430;BME280;36359;41.556;-8.418;2022-07-12T06:41:43;99902.72;;;26.81;52.57
50430;BME280;36359;41.556;-8.418;2022-07-12T06:44:08;99897.97;;;26.81;54.54
50430;BME280;36359;41.556;-8.418;2022-07-12T06:46:34;99903.31;;;26.83;55.37
50430;BME280;36359;41.556;-8.418;2022-07-12T06:49:00;99904.22;;;26.99;46.92
50430;BME280;36359;41.556;-8.418;2022-07-12T06:51:25;99907.16;;;27.19;44.86
50430;BME280;36359;41.556;-8.418;2022-07-12T06:53:51;99914.88;;;27.54;42.21
50430;BME280;36359;41.556;-8.418;2022-07-12T06:56:17;99914.00;;;27.49;48.89
50430;BME280;36359;41.556;-8.418;2022-07-12T06:58:43;99914.03;;;27.59;49.55
50430;BME280;36359;41.556;-8.418;2022-07-12T07:01:09;99919.88;;;27.57;48.96
50430;BME280;36359;41.556;-8.418;2022-07-12T07:03:35;99929.13;;;27.68;47.78
50430;BME280;36359;41.556;-8.418;2022-07-12T07:06:01;99920.00;;;27.88;47.04
50430;BME280;36359;41.556;-8.418;2022-07-12T07:08:27;99927.53;;;27.88;49.36
50430;BME280;36359;41.556;-8.418;2022-07-12T07:10:52;99920.59;;;27.90;49.35
50430;BME280;36359;41.556;-8.418;2022-07-12T07:13:18;99923.66;;;27.89;48.23
50430;BME280;36359;41.556;-8.418;2022-07-12T07:15:44;99917.84;;;28.00;45.66
50430;BME280;36359;41.556;-8.418;2022-07-12T07:18:10;99923.72;;;28.09;46.11
50430;BME280;36359;41.556;-8.418;2022-07-12T07:20:35;99930.72;;;28.27;47.80
50430;BME280;36359;41.556;-8.418;2022-07-12T07:23:01;99923.47;;;28.31;47.41
50430;BME280;36359;41.556;-8.418;2022-07-12T07:25:27;99939.44;;;28.51;47.38
50430;BME280;36359;41.556;-8.418;2022-07-12T07:27:53;99934.97;;;28.60;47.83
50430;BME280;36359;41.556;-8.418;2022-07-12T07:30:19;99938.88;;;28.74;48.04
50430;BME280;36359;41.556;-8.418;2022-07-12T07:33:03;99944.72;;;28.93;46.07
50430;BME280;36359;41.556;-8.418;2022-07-12T07:35:29;99934.06;;;29.26;43.83
50430;BME280;36359;41.556;-8.418;2022-07-12T07:37:55;99937.63;;;29.47;42.43
50430;BME280;36359;41.556;-8.418;2022-07-12T07:40:21;99953.56;;;29.47;41.94
50430;BME280;36359;41.556;-8.418;2022-07-12T07:42:46;99939.56;;;29.62;42.04
50430;BME280;36359;41.556;-8.418;2022-07-12T07:45:12;99950.28;;;29.99;40.46
50430;BME280;36359;41.556;-8.418;2022-07-12T07:47:45;99950.38;;;29.89;42.49
50430;BME280;36359;41.556;-8.418;2022-07-12T07:50:11;99958.44;;;30.45;36.20
50430;BME280;36359;41.556;-8.418;2022-07-12T07:52:37;99950.03;;;30.50;39.81
50430;BME280;36359;41.556;-8.418;2022-07-12T07:55:03;99956.81;;;30.78;37.04
50430;BME280;36359;41.556;-8.418;2022-07-12T07:57:29;99960.44;;;30.79;38.20
50430;BME280;36359;41.556;-8.418;2022-07-12T07:59:54;99957.81;;;30.93;37.22
50430;BME280;36359;41.556;-8.418;2022-07-12T08:02:20;99968.97;;;30.98;37.80
50430;BME280;36359;41.556;-8.418;2022-07-12T08:04:46;99965.63;;;31.25;35.45
50430;BME280;36359;41.556;-8.418;2022-07-12T08:07:12;99972.88;;;31.26;35.96
50430;BME280;36359;41.556;-8.418;2022-07-12T08:09:39;99969.81;;;31.28;33.98
50430;BME280;36359;41.556;-8.418;2022-07-12T08:12:05;99969.09;;;31.41;33.42
50430;BME280;36359;41.556;-8.418;2022-07-12T08:14:30;99981.75;;;31.38;33.18
50430;BME280;36359;41.556;-8.418;2022-07-12T08:16:56;99977.63;;;31.02;37.62
50430;BME280;36359;41.556;-8.418;2022-07-12T08:19:22;99983.41;;;30.81;38.96
50430;BME280;36359;41.556;-8.418;2022-07-12T08:21:48;99983.59;;;30.50;40.63
50430;BME280;36359;41.556;-8.418;2022-07-12T08:24:13;99980.66;;;30.26;40.33
50430;BME280;36359;41.556;-8.418;2022-07-12T08:26:39;99983.88;;;29.94;41.81
50430;BME280;36359;41.556;-8.418;2022-07-12T08:29:05;99987.88;;;29.83;41.76
50430;BME280;36359;41.556;-8.418;2022-07-12T08:31:31;99982.78;;;29.95;42.07
50430;BME280;36359;41.556;-8.418;2022-07-12T08:33:57;99983.94;;;29.89;44.86
50430;BME280;36359;41.556;-8.418;2022-07-12T08:36:23;99988.41;;;29.85;44.77
50430;BME280;36359;41.556;-8.418;2022-07-12T08:38:48;99981.41;;;29.82;46.54
50430;BME280;36359;41.556;-8.418;2022-07-12T08:41:14;99985.69;;;29.64;46.97
50430;BME280;36359;41.556;-8.418;2022-07-12T08:43:41;99983.59;;;29.96;45.23
50430;BME280;36359;41.556;-8.418;2022-07-12T08:46:12;99993.03;;;30.15;43.24
50430;BME280;36359;41.556;-8.418;2022-07-12T08:48:39;99990.41;;;30.34;43.78
50430;BME280;36359;41.556;-8.418;2022-07-12T08:51:10;99991.81;;;30.37;45.02
50430;BME280;36359;41.556;-8.418;2022-07-12T08:53:37;100001.00;;;30.42;46.95
50430;BME280;36359;41.556;-8.418;2022-07-12T08:56:04;99995.78;;;30.65;46.00
50430;BME280;36359;41.556;-8.418;2022-07-12T08:58:31;100003.38;;;31.04;40.81
50430;BME280;36359;41.556;-8.418;2022-07-12T09:00:57;100007.56;;;31.35;40.76
50430;BME280;36359;41.556;-8.418;2022-07-12T09:03:23;100005.81;;;31.44;39.36
50430;BME280;36359;41.556;-8.418;2022-07-12T09:05:54;99994.56;;;31.98;38.10
50430;BME280;36359;41.556;-8.418;2022-07-12T09:08:27;100008.66;;;31.93;42.07
50430;BME280;36359;41.556;-8.418;2022-07-12T09:13:21;100010.72;;;32.06;41.63
50430;BME280;36359;41.556;-8.418;2022-07-12T09:16:13;100009.97;;;32.38;36.61
50430;BME280;36359;41.556;-8.418;2022-07-12T09:18:40;100015.09;;;32.55;36.81
50430;BME280;36359;41.556;-8.418;2022-07-12T09:21:05;100007.44;;;32.61;36.86
50430;BME280;36359;41.556;-8.418;2022-07-12T09:23:31;100016.63;;;32.66;37.44
50430;BME280;36359;41.556;-8.418;2022-07-12T09:25:57;100017.09;;;32.54;37.47
50430;BME280;36359;41.556;-8.418;2022-07-12T09:28:23;100016.78;;;32.75;36.60
50430;BME280;36359;41.556;-8.418;2022-07-12T09:30:51;100020.69;;;32.93;35.64
50430;BME280;36359;41.556;-8.418;2022-07-12T09:33:19;100011.84;;;32.86;35.49
50430;BME280;36359;41.556;-8.418;2022-07-12T09:36:04;100021.41;;;33.04;34.65
50430;BME280;36359;41.556;-8.418;2022-07-12T09:38:39;100019.50;;;32.99;34.71
50430;BME280;36359;41.556;-8.418;2022-07-12T09:41:07;100027.38;;;33.30;34.58
50430;BME280;36359;41.556;-8.418;2022-07-12T09:43:34;100032.84;;;33.40;34.15
50430;BME280;36359;41.556;-8.418;2022-07-12T09:46:00;100033.88;;;33.44;33.87
50430;BME280;36359;41.556;-8.418;2022-07-12T09:48:27;100038.84;;;33.66;33.76
50430;BME280;36359;41.556;-8.418;2022-07-12T09:50:57;100033.09;;;33.57;33.76
50430;BME280;36359;41.556;-8.418;2022-07-12T09:53:43;100029.66;;;33.88;32.85
50430;BME280;36359;41.556;-8.418;2022-07-12T09:56:11;100028.84;;;34.29;33.67
50430;BME280;36359;41.556;-8.418;2022-07-12T09:58:43;100036.84;;;33.94;32.88
50430;BME280;36359;41.556;-8.418;2022-07-12T10:01:14;100044.41;;;34.12;32.38
50430;BME280;36359;41.556;-8.418;2022-07-12T10:03:42;100048.84;;;34.00;32.08
50430;BME280;36359;41.556;-8.418;2022-07-12T10:06:09;100037.59;;;34.00;31.66
50430;BME280;36359;41.556;-8.418;2022-07-12T10:08:36;100050.72;;;34.32;32.11
50430;BME280;36359;41.556;-8.418;2022-07-12T10:11:02;100050.97;;;34.22;33.35
50430;BME280;36359;41.556;-8.418;2022-07-12T10:13:28;100047.91;;;34.46;33.08
50430;BME280;36359;41.556;-8.418;2022-07-12T10:16:00;100056.72;;;34.53;32.79
50430;BME280;36359;41.556;-8.418;2022-07-12T10:18:27;100057.63;;;34.26;32.92
50430;BME280;36359;41.556;-8.418;2022-07-12T10:20:53;100051.78;;;34.22;34.47
50430;BME280;36359;41.556;-8.418;2022-07-12T10:23:33;100057.81;;;34.29;35.36
50430;BME280;36359;41.556;-8.418;2022-07-12T10:26:25;100062.94;;;33.86;35.83
50430;BME280;36359;41.556;-8.418;2022-07-12T10:29:02;100072.19;;;34.00;34.58
50430;BME280;36359;41.556;-8.418;2022-07-12T10:31:30;100068.03;;;34.39;33.41
50430;BME280;36359;41.556;-8.418;2022-07-12T10:34:20;100065.75;;;34.55;32.83
50430;BME280;36359;41.556;-8.418;2022-07-12T10:39:23;100072.78;;;34.80;31.70
50430;BME280;36359;41.556;-8.418;2022-07-12T10:44:40;100071.06;;;35.38;31.45
50430;BME280;36359;41.556;-8.418;2022-07-12T10:47:07;100074.34;;;35.31;31.60
50430;BME280;36359;41.556;-8.418;2022-07-12T10:50:05;100072.16;;;35.51;31.81
50430;BME280;36359;41.556;-8.418;2022-07-12T10:52:31;100078.41;;;35.70;31.27
50430;BME280;36359;41.556;-8.418;2022-07-12T10:57:42;100082.88;;;35.62;31.31
50430;BME280;36359;41.556;-8.418;2022-07-12T11:00:09;100083.34;;;35.33;31.95
50430;BME280;36359;41.556;-8.418;2022-07-12T11:02:36;100086.06;;;35.02;31.99
50430;BME280;36359;41.556;-8.418;2022-07-12T11:05:02;100085.63;;;35.09;28.65
50430;BME280;36359;41.556;-8.418;2022-07-12T11:07:29;100080.69;;;35.14;29.49
50430;BME280;36359;41.556;-8.418;2022-07-12T11:09:55;100082.28;;;35.52;26.80
50430;BME280;36359;41.556;-8.418;2022-07-12T11:12:30;100089.41;;;35.49;27.25
50430;BME280;36359;41.556;-8.418;2022-07-12T11:14:58;100083.94;;;35.53;27.87
50430;BME280;36359;41.556;-8.418;2022-07-12T11:17:32;100084.16;;;34.97;28.83
50430;BME280;36359;41.556;-8.418;2022-07-12T11:20:16;100080.34;;;35.38;27.77
50430;BME280;36359;41.556;-8.418;2022-07-12T11:22:42;100084.44;;;35.77;26.92
50430;BME280;36359;41.556;-8.418;2022-07-12T11:25:10;100078.94;;;35.49;28.18
50430;BME280;36359;41.556;-8.418;2022-07-12T11:27:37;100078.25;;;35.66;27.22
50430;BME280;36359;41.556;-8.418;2022-07-12T11:30:06;100071.56;;;35.93;25.73
50430;BME280;36359;41.556;-8.418;2022-07-12T11:32:41;100078.72;;;36.00;26.59
50430;BME280;36359;41.556;-8.418;2022-07-12T11:35:22;100077.50;;;35.83;26.29
50430;BME280;36359;41.556;-8.418;2022-07-12T11:37:56;100070.69;;;35.31;27.15
50430;BME280;36359;41.556;-8.418;2022-07-12T11:40:29;100087.34;;;35.94;24.79
50430;BME280;36359;41.556;-8.418;2022-07-12T11:43:00;100085.47;;;36.12;22.94
50430;BME280;36359;41.556;-8.418;2022-07-12T11:45:31;100100.13;;;35.92;25.75
50430;BME280;36359;41.556;-8.418;2022-07-12T11:48:02;100091.56;;;36.06;23.55
50430;BME280;36359;41.556;-8.418;2022-07-12T11:50:29;100094.34;;;35.43;29.54
50430;BME280;36359;41.556;-8.418;2022-07-12T11:52:55;100094.25;;;36.11;25.51
50430;BME280;36359;41.556;-8.418;2022-07-12T11:55:21;100098.94;;;36.24;24.20
50430;BME280;36359;41.556;-8.418;2022-07-12T11:57:48;100094.00;;;35.99;27.29
50430;BME280;36359;41.556;-8.418;2022-07-12T12:02:44;100090.06;;;36.08;24.72
50430;BME280;36359;41.556;-8.418;2022-07-12T12:05:10;100090.03;;;36.48;23.08
50430;BME280;36359;41.556;-8.418;2022-07-12T12:07:36;100085.13;;;37.06;22.79
50430;BME280;36359;41.556;-8.418;2022-07-12T12:10:10;100085.59;;;37.43;22.38
50430;BME280;36359;41.556;-8.418;2022-07-12T12:12:49;100080.44;;;37.45;21.46
50430;BME280;36359;41.556;-8.418;2022-07-12T12:15:18;100094.25;;;37.29;22.64
50430;BME280;36359;41.556;-8.418;2022-07-12T12:17:57;100085.81;;;37.93;21.92
50430;BME280;36359;41.556;-8.418;2022-07-12T12:20:26;100089.38;;;37.64;23.34
50430;BME280;36359;41.556;-8.418;2022-07-12T12:23:03;100081.59;;;37.35;24.97
50430;BME280;36359;41.556;-8.418;2022-07-12T12:25:31;100091.94;;;37.48;22.93
50430;BME280;36359;41.556;-8.418;2022-07-12T12:28:03;100089.25;;;37.43;23.57
50430;BME280;36359;41.556;-8.418;2022-07-12T12:30:30;100094.56;;;36.58;24.91
50430;BME280;36359;41.556;-8.418;2022-07-12T12:33:01;100086.66;;;37.03;23.50
50430;BME280;36359;41.556;-8.418;2022-07-12T12:35:33;100084.78;;;37.25;22.42
50430;BME280;36359;41.556;-8.418;2022-07-12T12:38:03;100083.78;;;37.12;22.96
50430;BME280;36359;41.556;-8.418;2022-07-12T12:40:35;100085.22;;;37.70;21.45
50430;BME280;36359;41.556;-8.418;2022-07-12T12:43:07;100087.25;;;38.38;20.78
50430;BME280;36359;41.556;-8.418;2022-07-12T12:45:34;100085.16;;;38.56;20.03
50430;BME280;36359;41.556;-8.418;2022-07-12T12:48:07;100079.31;;;38.82;20.07
50430;BME280;36359;41.556;-8.418;2022-07-12T12:50:41;100083.94;;;38.66;20.27
50430;BME280;36359;41.556;-8.418;2022-07-12T12:53:12;100075.59;;;39.44;19.29
50430;BME280;36359;41.556;-8.418;2022-07-12T12:55:39;100076.56;;;39.15;19.51
50430;BME280;36359;41.556;-8.418;2022-07-12T12:58:05;100080.78;;;38.88;19.46
50430;BME280;36359;41.556;-8.418;2022-07-12T13:00:31;100075.66;;;38.81;20.62
50430;BME280;36359;41.556;-8.418;2022-07-12T13:02:58;100071.72;;;39.16;19.18
50430;BME280;36359;41.556;-8.418;2022-07-12T13:05:27;100072.50;;;39.04;19.96